sensor_id;sensor_type;location;lat;lon;timestamp;P1;durP1;ratioP1;P2;durP2;ratioP2
17812;SDS011;9030;50.792;8.320;2023-06-04T00:00:54;6.75;;;1.90;;
17812;SDS011;9030;50.792;8.320;2023-06-04T00:03:24;4.32;;;2.00;;
17812;SDS011;9030;50.792;8.320;2023-06-04T00:05:50;6.32;;;1.80;;
17812;SDS011;9030;50.792;8.320;2023-06-04T00:08:17;6.03;;;2.13;;
17812;SDS011;9030;50.792;8.320;2023-06-04T00:10:44;4.05;;;1.77;;
17812;SDS011;9030;50.792;8.320;2023-06-04T00:13:10;5.40;;;1.70;;
17812;SDS011;9030;50.792;8.320;2023-06-04T00:15:37;6.95;;;2.40;;
17812;SDS011;9030;50.792;8.320;2023-06-04T00:18:04;6.97;;;1.75;;
17812;SDS011;9030;50.792;8.320;2023-06-04T00:20:32;5.68;;;2.03;;
17812;SDS011;9030;50.792;8.320;2023-06-04T00:22:58;5.50;;;1.70;;
17812;SDS011;9030;50.792;8.320;2023-06-04T00:25:25;6.32;;;1.73;;
17812;SDS011;9030;50.792;8.320;2023-06-04T00:27:52;7.20;;;1.90;;
17812;SDS011;9030;50.792;8.320;2023-06-04T00:30:18;5.40;;;1.65;;
17812;SDS011;9030;50.792;8.320;2023-06-04T00:32:45;5.55;;;2.05;;
17812;SDS011;9030;50.792;8.320;2023-06-04T00:35:12;3.85;;;1.95;;
17812;SDS011;9030;50.792;8.320;2023-06-04T00:37:40;5.20;;;1.55;;
17812;SDS011;9030;50.792;8.320;2023-06-04T00:40:07;5.53;;;1.52;;
17812;SDS011;9030;50.792;8.320;2023-06-04T00:42:34;5.65;;;1.67;;
17812;SDS011;9030;50.792;8.320;2023-06-04T00:45:01;5.93;;;1.92;;
17812;SDS011;9030;50.792;8.320;2023-06-04T00:47:28;5.65;;;2.03;;
17812;SDS011;9030;50.792;8.320;2023-06-04T00:49:56;5.68;;;1.75;;
17812;SDS011;9030;50.792;8.320;2023-06-04T00:52:23;5.75;;;2.15;;
17812;SDS011;9030;50.792;8.320;2023-06-04T00:54:52;4.43;;;1.95;;
17812;SDS011;9030;50.792;8.320;2023-06-04T00:57:20;5.57;;;1.75;;
17812;SDS011;9030;50.792;8.320;2023-06-04T00:59:47;6.05;;;1.60;;
17812;SDS011;9030;50.792;8.320;2023-06-04T01:02:15;5.85;;;1.92;;
17812;SDS011;9030;50.792;8.320;2023-06-04T01:04:46;5.50;;;1.92;;
17812;SDS011;9030;50.792;8.320;2023-06-04T01:07:19;5.80;;;2.10;;
17812;SDS011;9030;50.792;8.320;2023-06-04T01:09:48;5.22;;;1.52;;
17812;SDS011;9030;50.792;8.320;2023-06-04T01:12:16;5.97;;;1.83;;
17812;SDS011;9030;50.792;8.320;2023-06-04T01:14:43;7.50;;;2.13;;
17812;SDS011;9030;50.792;8.320;2023-06-04T01:17:11;6.90;;;1.60;;
17812;SDS011;9030;50.792;8.320;2023-06-04T01:22:30;8.73;;;1.87;;
17812;SDS011;9030;50.792;8.320;2023-06-04T01:25:02;5.23;;;1.80;;
17812;SDS011;9030;50.792;8.320;2023-06-04T01:27:31;6.90;;;1.67;;
17812;SDS011;9030;50.792;8.320;2023-06-04T01:30:00;6.60;;;2.03;;
17812;SDS011;9030;50.792;8.320;2023-06-04T01:32:28;8.03;;;2.00;;
17812;SDS011;9030;50.792;8.320;2023-06-04T01:34:55;4.07;;;1.77;;
17812;SDS011;9030;50.792;8.320;2023-06-04T01:37:22;5.73;;;1.93;;
17812;SDS011;9030;50.792;8.320;2023-06-04T01:39:48;6.43;;;2.17;;
17812;SDS011;9030;50.792;8.320;2023-06-04T01:42:15;5.00;;;1.90;;
17812;SDS011;9030;50.792;8.320;2023-06-04T01:44:43;5.03;;;2.07;;
17812;SDS011;9030;50.792;8.320;2023-06-04T01:47:10;7.57;;;2.43;;
17812;SDS011;9030;50.792;8.320;2023-06-04T01:49:36;5.10;;;2.30;;
17812;SDS011;9030;50.792;8.320;2023-06-04T01:52:05;6.70;;;2.03;;
17812;SDS011;9030;50.792;8.320;2023-06-04T01:54:32;8.33;;;2.07;;
17812;SDS011;9030;50.792;8.320;2023-06-04T01:56:59;10.57;;;2.47;;
17812;SDS011;9030;50.792;8.320;2023-06-04T01:59:26;5.40;;;2.10;;
17812;SDS011;9030;50.792;8.320;2023-06-04T02:01:54;6.23;;;2.40;;
17812;SDS011;9030;50.792;8.320;2023-06-04T02:04:20;5.70;;;1.93;;
17812;SDS011;9030;50.792;8.320;2023-06-04T02:06:48;7.50;;;2.53;;
17812;SDS011;9030;50.792;8.320;2023-06-04T02:09:14;8.60;;;2.53;;
17812;SDS011;9030;50.792;8.320;2023-06-04T02:11:41;8.23;;;2.43;;
17812;SDS011;9030;50.792;8.320;2023-06-04T02:14:08;6.33;;;2.47;;
17812;SDS011;9030;50.792;8.320;2023-06-04T02:16:34;6.73;;;2.27;;
17812;SDS011;9030;50.792;8.320;2023-06-04T02:19:04;4.77;;;1.70;;
17812;SDS011;9030;50.792;8.320;2023-06-04T02:21:30;3.73;;;2.07;;
17812;SDS011;9030;50.792;8.320;2023-06-04T02:23:57;5.10;;;2.20;;
17812;SDS011;9030;50.792;8.320;2023-06-04T02:26:24;8.20;;;2.20;;
17812;SDS011;9030;50.792;8.320;2023-06-04T02:28:50;6.27;;;1.80;;
17812;SDS011;9030;50.792;8.320;2023-06-04T02:31:17;6.80;;;2.30;;
17812;SDS011;9030;50.792;8.320;2023-06-04T02:33:44;6.93;;;2.40;;
17812;SDS011;9030;50.792;8.320;2023-06-04T02:36:12;5.70;;;2.57;;
17812;SDS011;9030;50.792;8.320;2023-06-04T02:38:38;7.90;;;2.40;;
17812;SDS011;9030;50.792;8.320;2023-06-04T02:41:05;5.47;;;1.97;;
17812;SDS011;9030;50.792;8.320;2023-06-04T02:43:31;5.13;;;2.20;;
17812;SDS011;9030;50.792;8.320;2023-06-04T02:45:58;6.03;;;3.00;;
17812;SDS011;9030;50.792;8.320;2023-06-04T02:48:25;7.93;;;2.30;;
17812;SDS011;9030;50.792;8.320;2023-06-04T02:50:51;6.23;;;2.23;;
17812;SDS011;9030;50.792;8.320;2023-06-04T02:53:19;5.63;;;2.33;;
17812;SDS011;9030;50.792;8.320;2023-06-04T02:55:46;6.97;;;2.47;;
17812;SDS011;9030;50.792;8.320;2023-06-04T02:58:13;6.27;;;2.60;;
17812;SDS011;9030;50.792;8.320;2023-06-04T03:00:41;7.47;;;2.53;;
17812;SDS011;9030;50.792;8.320;2023-06-04T03:03:07;11.17;;;4.20;;
17812;SDS011;9030;50.792;8.320;2023-06-04T03:05:34;6.57;;;2.87;;
17812;SDS011;9030;50.792;8.320;2023-06-04T03:08:02;7.83;;;2.20;;
17812;SDS011;9030;50.792;8.320;2023-06-04T03:10:30;7.50;;;2.87;;
17812;SDS011;9030;50.792;8.320;2023-06-04T03:12:57;8.77;;;2.30;;
17812;SDS011;9030;50.792;8.320;2023-06-04T03:15:24;12.63;;;3.40;;
17812;SDS011;9030;50.792;8.320;2023-06-04T03:17:50;7.53;;;2.73;;
17812;SDS011;9030;50.792;8.320;2023-06-04T03:20:17;6.47;;;2.33;;
17812;SDS011;9030;50.792;8.320;2023-06-04T03:22:44;5.60;;;2.60;;
17812;SDS011;9030;50.792;8.320;2023-06-04T03:25:11;10.87;;;3.03;;
17812;SDS011;9030;50.792;8.320;2023-06-04T03:27:39;6.33;;;3.00;;
17812;SDS011;9030;50.792;8.320;2023-06-04T03:30:06;6.13;;;2.90;;
17812;SDS011;9030;50.792;8.320;2023-06-04T03:32:33;6.17;;;3.13;;
17812;SDS011;9030;50.792;8.320;2023-06-04T03:35:00;8.13;;;3.37;;
17812;SDS011;9030;50.792;8.320;2023-06-04T03:37:28;7.67;;;3.00;;
17812;SDS011;9030;50.792;8.320;2023-06-04T03:39:55;7.00;;;3.07;;
17812;SDS011;9030;50.792;8.320;2023-06-04T03:42:21;3.53;;;2.17;;
17812;SDS011;9030;50.792;8.320;2023-06-04T03:44:49;9.70;;;2.90;;
17812;SDS011;9030;50.792;8.320;2023-06-04T03:47:16;6.97;;;3.13;;
17812;SDS011;9030;50.792;8.320;2023-06-04T03:49:42;6.37;;;2.90;;
17812;SDS011;9030;50.792;8.320;2023-06-04T03:52:09;6.87;;;3.10;;
17812;SDS011;9030;50.792;8.320;2023-06-04T03:54:36;6.27;;;2.87;;
17812;SDS011;9030;50.792;8.320;2023-06-04T03:57:03;8.93;;;3.43;;
17812;SDS011;9030;50.792;8.320;2023-06-04T03:59:29;6.67;;;2.67;;
17812;SDS011;9030;50.792;8.320;2023-06-04T04:01:58;5.67;;;3.33;;
17812;SDS011;9030;50.792;8.320;2023-06-04T04:04:24;6.20;;;2.83;;
17812;SDS011;9030;50.792;8.320;2023-06-04T04:06:51;5.43;;;3.13;;
17812;SDS011;9030;50.792;8.320;2023-06-04T04:09:17;7.73;;;3.00;;
17812;SDS011;9030;50.792;8.320;2023-06-04T04:11:44;7.10;;;3.03;;
17812;SDS011;9030;50.792;8.320;2023-06-04T04:14:11;7.33;;;2.63;;
17812;SDS011;9030;50.792;8.320;2023-06-04T04:16:37;13.87;;;3.33;;
17812;SDS011;9030;50.792;8.320;2023-06-04T04:19:05;7.20;;;3.23;;
17812;SDS011;9030;50.792;8.320;2023-06-04T04:21:33;9.13;;;3.70;;
17812;SDS011;9030;50.792;8.320;2023-06-04T04:24:01;6.37;;;3.27;;
17812;SDS011;9030;50.792;8.320;2023-06-04T04:26:28;7.50;;;3.07;;
17812;SDS011;9030;50.792;8.320;2023-06-04T04:28:55;6.93;;;3.23;;
17812;SDS011;9030;50.792;8.320;2023-06-04T04:31:23;9.73;;;3.87;;
17812;SDS011;9030;50.792;8.320;2023-06-04T04:33:50;10.23;;;3.10;;
17812;SDS011;9030;50.792;8.320;2023-06-04T04:36:18;6.57;;;2.97;;
17812;SDS011;9030;50.792;8.320;2023-06-04T04:38:45;8.57;;;2.70;;
17812;SDS011;9030;50.792;8.320;2023-06-04T04:41:19;7.72;;;3.30;;
17812;SDS011;9030;50.792;8.320;2023-06-04T04:43:45;9.27;;;3.47;;
17812;SDS011;9030;50.792;8.320;2023-06-04T04:46:12;6.87;;;2.80;;
17812;SDS011;9030;50.792;8.320;2023-06-04T04:48:39;11.57;;;3.90;;
17812;SDS011;9030;50.792;8.320;2023-06-04T04:51:07;6.97;;;3.10;;
17812;SDS011;9030;50.792;8.320;2023-06-04T04:53:35;12.15;;;3.47;;
17812;SDS011;9030;50.792;8.320;2023-06-04T04:56:01;4.82;;;2.67;;
17812;SDS011;9030;50.792;8.320;2023-06-04T04:58:28;7.40;;;3.20;;
17812;SDS011;9030;50.792;8.320;2023-06-04T05:00:55;6.75;;;3.28;;
17812;SDS011;9030;50.792;8.320;2023-06-04T05:03:21;6.43;;;3.13;;
17812;SDS011;9030;50.792;8.320;2023-06-04T05:05:48;8.75;;;3.28;;
17812;SDS011;9030;50.792;8.320;2023-06-04T05:08:15;7.57;;;2.70;;
17812;SDS011;9030;50.792;8.320;2023-06-04T05:10:43;7.53;;;2.72;;
17812;SDS011;9030;50.792;8.320;2023-06-04T05:13:09;7.13;;;2.83;;
17812;SDS011;9030;50.792;8.320;2023-06-04T05:15:36;6.55;;;3.13;;
17812;SDS011;9030;50.792;8.320;2023-06-04T05:18:04;7.50;;;2.78;;
17812;SDS011;9030;50.792;8.320;2023-06-04T05:20:31;6.28;;;2.90;;
17812;SDS011;9030;50.792;8.320;2023-06-04T05:22:58;10.20;;;3.42;;
17812;SDS011;9030;50.792;8.320;2023-06-04T05:25:24;8.68;;;3.65;;
17812;SDS011;9030;50.792;8.320;2023-06-04T05:27:53;7.97;;;3.08;;
17812;SDS011;9030;50.792;8.320;2023-06-04T05:30:20;6.25;;;3.13;;
17812;SDS011;9030;50.792;8.320;2023-06-04T05:32:47;7.82;;;3.70;;
17812;SDS011;9030;50.792;8.320;2023-06-04T05:35:15;6.03;;;3.13;;
17812;SDS011;9030;50.792;8.320;2023-06-04T05:37:42;8.93;;;2.95;;
17812;SDS011;9030;50.792;8.320;2023-06-04T05:40:10;6.88;;;2.47;;
17812;SDS011;9030;50.792;8.320;2023-06-04T05:42:38;7.35;;;2.78;;
17812;SDS011;9030;50.792;8.320;2023-06-04T05:45:07;7.28;;;2.80;;
17812;SDS011;9030;50.792;8.320;2023-06-04T05:47:34;8.43;;;2.70;;
17812;SDS011;9030;50.792;8.320;2023-06-04T05:50:02;7.78;;;3.05;;
17812;SDS011;9030;50.792;8.320;2023-06-04T05:52:29;9.13;;;3.22;;
17812;SDS011;9030;50.792;8.320;2023-06-04T05:54:57;6.45;;;2.78;;
17812;SDS011;9030;50.792;8.320;2023-06-04T05:57:24;4.80;;;2.22;;
17812;SDS011;9030;50.792;8.320;2023-06-04T05:59:50;6.72;;;2.85;;
17812;SDS011;9030;50.792;8.320;2023-06-04T06:02:19;8.82;;;2.85;;
17812;SDS011;9030;50.792;8.320;2023-06-04T06:04:45;8.02;;;3.20;;
17812;SDS011;9030;50.792;8.320;2023-06-04T06:07:12;10.60;;;3.20;;
17812;SDS011;9030;50.792;8.320;2023-06-04T06:09:38;8.68;;;2.33;;
17812;SDS011;9030;50.792;8.320;2023-06-04T06:12:05;6.22;;;2.83;;
17812;SDS011;9030;50.792;8.320;2023-06-04T06:14:32;5.25;;;2.70;;
17812;SDS011;9030;50.792;8.320;2023-06-04T06:16:59;9.68;;;2.75;;
17812;SDS011;9030;50.792;8.320;2023-06-04T06:19:29;8.95;;;3.10;;
17812;SDS011;9030;50.792;8.320;2023-06-04T06:21:56;4.72;;;2.20;;
17812;SDS011;9030;50.792;8.320;2023-06-04T06:24:23;5.50;;;2.25;;
17812;SDS011;9030;50.792;8.320;2023-06-04T06:26:50;3.78;;;1.90;;
17812;SDS011;9030;50.792;8.320;2023-06-04T06:29:16;5.03;;;2.30;;
17812;SDS011;9030;50.792;8.320;2023-06-04T06:31:43;7.88;;;2.58;;
17812;SDS011;9030;50.792;8.320;2023-06-04T06:34:10;5.38;;;2.58;;
17812;SDS011;9030;50.792;8.320;2023-06-04T06:36:38;10.00;;;2.83;;
17812;SDS011;9030;50.792;8.320;2023-06-04T06:39:04;5.20;;;2.50;;
17812;SDS011;9030;50.792;8.320;2023-06-04T06:41:31;7.28;;;2.58;;
17812;SDS011;9030;50.792;8.320;2023-06-04T06:43:58;6.70;;;2.88;;
17812;SDS011;9030;50.792;8.320;2023-06-04T06:46:25;6.63;;;2.78;;
17812;SDS011;9030;50.792;8.320;2023-06-04T06:48:51;7.93;;;2.38;;
17812;SDS011;9030;50.792;8.320;2023-06-04T06:51:18;4.03;;;1.98;;
17812;SDS011;9030;50.792;8.320;2023-06-04T06:53:46;9.57;;;2.90;;
17812;SDS011;9030;50.792;8.320;2023-06-04T06:56:15;4.18;;;2.10;;
17812;SDS011;9030;50.792;8.320;2023-06-04T06:58:43;5.82;;;2.88;;
17812;SDS011;9030;50.792;8.320;2023-06-04T07:01:09;6.55;;;2.38;;
17812;SDS011;9030;50.792;8.320;2023-06-04T07:03:36;7.07;;;2.35;;
17812;SDS011;9030;50.792;8.320;2023-06-04T07:06:04;5.82;;;2.25;;
17812;SDS011;9030;50.792;8.320;2023-06-04T07:08:31;7.18;;;2.67;;
17812;SDS011;9030;50.792;8.320;2023-06-04T07:10:59;9.27;;;2.53;;
17812;SDS011;9030;50.792;8.320;2023-06-04T07:13:28;4.93;;;2.10;;
17812;SDS011;9030;50.792;8.320;2023-06-04T07:15:57;6.25;;;2.05;;
17812;SDS011;9030;50.792;8.320;2023-06-04T07:18:23;4.97;;;1.90;;
17812;SDS011;9030;50.792;8.320;2023-06-04T07:20:50;5.95;;;2.28;;
17812;SDS011;9030;50.792;8.320;2023-06-04T07:23:17;5.97;;;2.22;;
17812;SDS011;9030;50.792;8.320;2023-06-04T07:25:44;3.90;;;2.03;;
17812;SDS011;9030;50.792;8.320;2023-06-04T07:28:12;8.38;;;2.42;;
17812;SDS011;9030;50.792;8.320;2023-06-04T07:30:38;7.32;;;2.53;;
17812;SDS011;9030;50.792;8.320;2023-06-04T07:33:05;6.28;;;2.08;;
17812;SDS011;9030;50.792;8.320;2023-06-04T07:35:32;9.63;;;2.47;;
17812;SDS011;9030;50.792;8.320;2023-06-04T07:37:58;8.23;;;2.10;;
17812;SDS011;9030;50.792;8.320;2023-06-04T07:40:25;7.00;;;1.95;;
17812;SDS011;9030;50.792;8.320;2023-06-04T07:42:52;5.18;;;1.75;;
17812;SDS011;9030;50.792;8.320;2023-06-04T07:45:20;10.18;;;2.42;;
17812;SDS011;9030;50.792;8.320;2023-06-04T07:47:46;5.65;;;1.85;;
17812;SDS011;9030;50.792;8.320;2023-06-04T07:50:13;7.05;;;2.50;;
17812;SDS011;9030;50.792;8.320;2023-06-04T07:52:40;5.35;;;2.03;;
17812;SDS011;9030;50.792;8.320;2023-06-04T07:55:07;5.22;;;2.17;;
17812;SDS011;9030;50.792;8.320;2023-06-04T07:57:34;5.07;;;1.70;;
17812;SDS011;9030;50.792;8.320;2023-06-04T08:00:01;5.13;;;2.25;;
17812;SDS011;9030;50.792;8.320;2023-06-04T08:02:31;7.63;;;2.45;;
17812;SDS011;9030;50.792;8.320;2023-06-04T08:04:58;7.18;;;2.10;;
17812;SDS011;9030;50.792;8.320;2023-06-04T08:07:25;3.72;;;1.58;;
17812;SDS011;9030;50.792;8.320;2023-06-04T08:09:51;6.25;;;1.98;;
17812;SDS011;9030;50.792;8.320;2023-06-04T08:12:18;8.57;;;2.03;;
17812;SDS011;9030;50.792;8.320;2023-06-04T08:14:45;6.22;;;1.92;;
17812;SDS011;9030;50.792;8.320;2023-06-04T08:17:11;7.90;;;2.53;;
17812;SDS011;9030;50.792;8.320;2023-06-04T08:19:39;4.35;;;1.63;;
17812;SDS011;9030;50.792;8.320;2023-06-04T08:22:06;3.30;;;1.90;;
17812;SDS011;9030;50.792;8.320;2023-06-04T08:24:36;5.10;;;1.60;;
17812;SDS011;9030;50.792;8.320;2023-06-04T08:27:02;3.75;;;2.17;;
17812;SDS011;9030;50.792;8.320;2023-06-04T08:29:29;4.88;;;1.48;;
17812;SDS011;9030;50.792;8.320;2023-06-04T08:31:56;3.10;;;1.60;;
17812;SDS011;9030;50.792;8.320;2023-06-04T08:34:23;9.43;;;2.55;;
17812;SDS011;9030;50.792;8.320;2023-06-04T08:36:51;6.53;;;2.15;;
17812;SDS011;9030;50.792;8.320;2023-06-04T08:39:17;6.97;;;2.35;;
17812;SDS011;9030;50.792;8.320;2023-06-04T08:41:45;7.82;;;2.15;;
17812;SDS011;9030;50.792;8.320;2023-06-04T08:44:14;6.90;;;1.98;;
17812;SDS011;9030;50.792;8.320;2023-06-04T08:46:43;6.78;;;1.63;;
17812;SDS011;9030;50.792;8.320;2023-06-04T08:49:11;3.88;;;1.88;;
17812;SDS011;9030;50.792;8.320;2023-06-04T08:51:38;3.58;;;1.77;;
17812;SDS011;9030;50.792;8.320;2023-06-04T08:54:07;5.32;;;2.22;;
17812;SDS011;9030;50.792;8.320;2023-06-04T08:56:35;6.05;;;2.00;;
17812;SDS011;9030;50.792;8.320;2023-06-04T08:59:02;8.38;;;2.25;;
17812;SDS011;9030;50.792;8.320;2023-06-04T09:01:30;6.93;;;2.03;;
17812;SDS011;9030;50.792;8.320;2023-06-04T09:03:57;6.95;;;2.67;;
17812;SDS011;9030;50.792;8.320;2023-06-04T09:06:25;14.80;;;2.85;;
17812;SDS011;9030;50.792;8.320;2023-06-04T09:08:52;6.65;;;2.78;;
17812;SDS011;9030;50.792;8.320;2023-06-04T09:11:23;7.63;;;2.53;;
17812;SDS011;9030;50.792;8.320;2023-06-04T09:13:53;6.03;;;2.08;;
17812;SDS011;9030;50.792;8.320;2023-06-04T09:16:21;6.68;;;2.03;;
17812;SDS011;9030;50.792;8.320;2023-06-04T09:18:47;3.45;;;2.13;;
17812;SDS011;9030;50.792;8.320;2023-06-04T09:21:14;7.55;;;2.28;;
17812;SDS011;9030;50.792;8.320;2023-06-04T09:23:43;7.05;;;2.22;;
17812;SDS011;9030;50.792;8.320;2023-06-04T09:26:10;6.63;;;2.15;;
17812;SDS011;9030;50.792;8.320;2023-06-04T09:28:40;5.07;;;1.92;;
17812;SDS011;9030;50.792;8.320;2023-06-04T09:31:08;5.38;;;1.90;;
17812;SDS011;9030;50.792;8.320;2023-06-04T09:33:41;6.25;;;2.05;;
17812;SDS011;9030;50.792;8.320;2023-06-04T09:36:09;4.38;;;2.10;;
17812;SDS011;9030;50.792;8.320;2023-06-04T09:38:35;7.50;;;2.50;;
17812;SDS011;9030;50.792;8.320;2023-06-04T09:41:02;4.50;;;1.75;;
17812;SDS011;9030;50.792;8.320;2023-06-04T09:43:31;9.32;;;2.78;;
17812;SDS011;9030;50.792;8.320;2023-06-04T09:46:08;7.30;;;2.35;;
17812;SDS011;9030;50.792;8.320;2023-06-04T09:48:36;5.00;;;2.03;;
17812;SDS011;9030;50.792;8.320;2023-06-04T09:51:06;5.25;;;2.17;;
17812;SDS011;9030;50.792;8.320;2023-06-04T09:53:33;6.97;;;2.60;;
17812;SDS011;9030;50.792;8.320;2023-06-04T09:56:00;10.52;;;2.67;;
17812;SDS011;9030;50.792;8.320;2023-06-04T09:58:29;7.82;;;3.00;;
17812;SDS011;9030;50.792;8.320;2023-06-04T10:00:56;6.53;;;2.83;;
17812;SDS011;9030;50.792;8.320;2023-06-04T10:03:25;6.18;;;2.95;;
17812;SDS011;9030;50.792;8.320;2023-06-04T10:05:57;8.23;;;2.50;;
17812;SDS011;9030;50.792;8.320;2023-06-04T10:08:26;6.07;;;2.63;;
17812;SDS011;9030;50.792;8.320;2023-06-04T10:10:55;7.20;;;3.10;;
17812;SDS011;9030;50.792;8.320;2023-06-04T10:13:26;6.38;;;2.33;;
17812;SDS011;9030;50.792;8.320;2023-06-04T10:15:54;4.50;;;2.25;;
17812;SDS011;9030;50.792;8.320;2023-06-04T10:18:23;8.57;;;3.20;;
17812;SDS011;9030;50.792;8.320;2023-06-04T10:20:52;7.93;;;2.70;;
17812;SDS011;9030;50.792;8.320;2023-06-04T10:23:19;3.63;;;1.98;;
17812;SDS011;9030;50.792;8.320;2023-06-04T10:25:47;8.27;;;2.45;;
17812;SDS011;9030;50.792;8.320;2023-06-04T10:28:16;7.07;;;2.33;;
17812;SDS011;9030;50.792;8.320;2023-06-04T10:30:45;5.78;;;2.53;;
17812;SDS011;9030;50.792;8.320;2023-06-04T10:33:11;9.10;;;3.25;;
17812;SDS011;9030;50.792;8.320;2023-06-04T10:35:39;4.03;;;2.50;;
17812;SDS011;9030;50.792;8.320;2023-06-04T10:38:08;6.28;;;2.60;;
17812;SDS011;9030;50.792;8.320;2023-06-04T10:40:36;6.43;;;2.70;;
17812;SDS011;9030;50.792;8.320;2023-06-04T10:43:06;5.00;;;1.92;;
17812;SDS011;9030;50.792;8.320;2023-06-04T10:45:33;8.43;;;2.78;;
17812;SDS011;9030;50.792;8.320;2023-06-04T10:48:00;4.50;;;2.08;;
17812;SDS011;9030;50.792;8.320;2023-06-04T10:50:27;6.38;;;2.63;;
17812;SDS011;9030;50.792;8.320;2023-06-04T10:52:54;5.57;;;2.80;;
17812;SDS011;9030;50.792;8.320;2023-06-04T10:55:23;5.45;;;2.75;;
17812;SDS011;9030;50.792;8.320;2023-06-04T10:57:51;5.63;;;2.45;;
17812;SDS011;9030;50.792;8.320;2023-06-04T11:00:18;6.47;;;2.42;;
17812;SDS011;9030;50.792;8.320;2023-06-04T11:02:52;8.85;;;3.30;;
17812;SDS011;9030;50.792;8.320;2023-06-04T11:05:22;5.75;;;2.70;;
17812;SDS011;9030;50.792;8.320;2023-06-04T11:07:59;8.40;;;2.78;;
17812;SDS011;9030;50.792;8.320;2023-06-04T11:10:30;6.40;;;2.97;;
17812;SDS011;9030;50.792;8.320;2023-06-04T11:12:58;9.05;;;3.25;;
17812;SDS011;9030;50.792;8.320;2023-06-04T11:15:26;5.88;;;2.95;;
17812;SDS011;9030;50.792;8.320;2023-06-04T11:17:53;4.22;;;2.28;;
17812;SDS011;9030;50.792;8.320;2023-06-04T11:20:23;9.45;;;3.20;;
17812;SDS011;9030;50.792;8.320;2023-06-04T11:22:53;7.20;;;2.85;;
17812;SDS011;9030;50.792;8.320;2023-06-04T11:25:21;8.80;;;3.15;;
17812;SDS011;9030;50.792;8.320;2023-06-04T11:27:49;8.63;;;2.85;;
17812;SDS011;9030;50.792;8.320;2023-06-04T11:30:18;8.52;;;4.70;;
17812;SDS011;9030;50.792;8.320;2023-06-04T11:32:45;7.65;;;3.60;;
17812;SDS011;9030;50.792;8.320;2023-06-04T11:35:12;5.15;;;3.22;;
17812;SDS011;9030;50.792;8.320;2023-06-04T11:37:39;9.18;;;2.90;;
17812;SDS011;9030;50.792;8.320;2023-06-04T11:40:14;6.03;;;3.40;;
17812;SDS011;9030;50.792;8.320;2023-06-04T11:42:43;6.28;;;3.53;;
17812;SDS011;9030;50.792;8.320;2023-06-04T11:45:11;7.80;;;2.85;;
17812;SDS011;9030;50.792;8.320;2023-06-04T11:47:39;9.85;;;3.38;;
17812;SDS011;9030;50.792;8.320;2023-06-04T11:50:06;6.13;;;2.95;;
17812;SDS011;9030;50.792;8.320;2023-06-04T11:52:33;5.93;;;2.90;;
17812;SDS011;9030;50.792;8.320;2023-06-04T11:55:00;5.13;;;2.63;;
17812;SDS011;9030;50.792;8.320;2023-06-04T11:57:27;10.18;;;4.28;;
17812;SDS011;9030;50.792;8.320;2023-06-04T11:59:54;5.45;;;2.55;;
17812;SDS011;9030;50.792;8.320;2023-06-04T12:02:22;6.10;;;2.90;;
17812;SDS011;9030;50.792;8.320;2023-06-04T12:04:49;7.65;;;3.08;;
17812;SDS011;9030;50.792;8.320;2023-06-04T12:07:19;5.38;;;3.08;;
17812;SDS011;9030;50.792;8.320;2023-06-04T12:09:49;7.75;;;3.13;;
17812;SDS011;9030;50.792;8.320;2023-06-04T12:12:20;8.55;;;2.92;;
17812;SDS011;9030;50.792;8.320;2023-06-04T12:14:55;5.93;;;2.90;;
17812;SDS011;9030;50.792;8.320;2023-06-04T12:17:24;8.48;;;3.88;;
17812;SDS011;9030;50.792;8.320;2023-06-04T12:19:51;7.88;;;3.53;;
17812;SDS011;9030;50.792;8.320;2023-06-04T12:22:17;6.82;;;2.97;;
17812;SDS011;9030;50.792;8.320;2023-06-04T12:24:48;6.93;;;3.30;;
17812;SDS011;9030;50.792;8.320;2023-06-04T12:27:18;5.22;;;2.80;;
17812;SDS011;9030;50.792;8.320;2023-06-04T12:29:53;6.50;;;2.70;;
17812;SDS011;9030;50.792;8.320;2023-06-04T12:32:20;7.00;;;2.78;;
17812;SDS011;9030;50.792;8.320;2023-06-04T12:34:49;7.40;;;3.30;;
17812;SDS011;9030;50.792;8.320;2023-06-04T12:37:16;7.30;;;3.55;;
17812;SDS011;9030;50.792;8.320;2023-06-04T12:39:42;6.15;;;2.72;;
17812;SDS011;9030;50.792;8.320;2023-06-04T12:42:09;5.93;;;3.30;;
17812;SDS011;9030;50.792;8.320;2023-06-04T12:44:36;5.75;;;3.10;;
17812;SDS011;9030;50.792;8.320;2023-06-04T12:47:04;5.40;;;2.58;;
17812;SDS011;9030;50.792;8.320;2023-06-04T12:49:31;5.85;;;2.67;;
17812;SDS011;9030;50.792;8.320;2023-06-04T12:51:59;5.25;;;2.90;;
17812;SDS011;9030;50.792;8.320;2023-06-04T12:54:26;5.07;;;2.95;;
17812;SDS011;9030;50.792;8.320;2023-06-04T12:56:53;7.40;;;3.55;;
17812;SDS011;9030;50.792;8.320;2023-06-04T12:59:21;7.55;;;3.22;;
17812;SDS011;9030;50.792;8.320;2023-06-04T13:01:48;11.65;;;3.88;;
17812;SDS011;9030;50.792;8.320;2023-06-04T13:04:15;9.23;;;3.85;;
17812;SDS011;9030;50.792;8.320;2023-06-04T13:06:41;5.22;;;3.35;;
17812;SDS011;9030;50.792;8.320;2023-06-04T13:09:12;5.68;;;3.40;;
17812;SDS011;9030;50.792;8.320;2023-06-04T13:11:40;5.90;;;3.53;;
17812;SDS011;9030;50.792;8.320;2023-06-04T13:14:08;6.97;;;3.88;;
17812;SDS011;9030;50.792;8.320;2023-06-04T13:16:35;7.03;;;4.32;;
17812;SDS011;9030;50.792;8.320;2023-06-04T13:19:03;8.60;;;3.40;;
17812;SDS011;9030;50.792;8.320;2023-06-04T13:21:31;6.95;;;3.25;;
17812;SDS011;9030;50.792;8.320;2023-06-04T13:23:58;7.50;;;4.25;;
17812;SDS011;9030;50.792;8.320;2023-06-04T13:26:26;10.35;;;3.88;;
17812;SDS011;9030;50.792;8.320;2023-06-04T13:28:52;11.07;;;3.88;;
17812;SDS011;9030;50.792;8.320;2023-06-04T13:31:19;7.68;;;4.05;;
17812;SDS011;9030;50.792;8.320;2023-06-04T13:33:46;8.70;;;4.18;;
17812;SDS011;9030;50.792;8.320;2023-06-04T13:36:12;7.72;;;4.00;;
17812;SDS011;9030;50.792;8.320;2023-06-04T13:38:39;9.73;;;3.90;;
17812;SDS011;9030;50.792;8.320;2023-06-04T13:41:08;8.25;;;3.55;;
17812;SDS011;9030;50.792;8.320;2023-06-04T13:43:36;7.93;;;3.15;;
17812;SDS011;9030;50.792;8.320;2023-06-04T13:46:03;6.70;;;3.35;;
17812;SDS011;9030;50.792;8.320;2023-06-04T13:48:30;9.25;;;4.22;;
17812;SDS011;9030;50.792;8.320;2023-06-04T13:50:57;8.15;;;3.83;;
17812;SDS011;9030;50.792;8.320;2023-06-04T13:53:24;7.05;;;3.67;;
17812;SDS011;9030;50.792;8.320;2023-06-04T13:55:50;7.40;;;3.05;;
17812;SDS011;9030;50.792;8.320;2023-06-04T13:58:22;8.02;;;3.50;;
17812;SDS011;9030;50.792;8.320;2023-06-04T14:00:51;7.35;;;4.03;;
17812;SDS011;9030;50.792;8.320;2023-06-04T14:03:18;6.00;;;3.33;;
17812;SDS011;9030;50.792;8.320;2023-06-04T14:05:45;7.68;;;3.72;;
17812;SDS011;9030;50.792;8.320;2023-06-04T14:08:11;6.60;;;3.10;;
17812;SDS011;9030;50.792;8.320;2023-06-04T14:10:38;4.57;;;2.95;;
17812;SDS011;9030;50.792;8.320;2023-06-04T14:13:06;6.25;;;2.80;;
17812;SDS011;9030;50.792;8.320;2023-06-04T14:15:33;6.35;;;3.60;;
17812;SDS011;9030;50.792;8.320;2023-06-04T14:18:01;6.85;;;3.55;;
17812;SDS011;9030;50.792;8.320;2023-06-04T14:20:29;6.72;;;3.60;;
17812;SDS011;9030;50.792;8.320;2023-06-04T14:22:56;6.00;;;3.40;;
17812;SDS011;9030;50.792;8.320;2023-06-04T14:25:23;6.60;;;3.53;;
17812;SDS011;9030;50.792;8.320;2023-06-04T14:27:50;8.57;;;3.13;;
17812;SDS011;9030;50.792;8.320;2023-06-04T14:30:16;9.20;;;4.10;;
17812;SDS011;9030;50.792;8.320;2023-06-04T14:32:43;4.82;;;2.80;;
17812;SDS011;9030;50.792;8.320;2023-06-04T14:35:12;5.80;;;3.85;;
17812;SDS011;9030;50.792;8.320;2023-06-04T14:37:38;7.53;;;3.55;;
17812;SDS011;9030;50.792;8.320;2023-06-04T14:40:05;5.95;;;2.90;;
17812;SDS011;9030;50.792;8.320;2023-06-04T14:42:33;5.45;;;3.38;;
17812;SDS011;9030;50.792;8.320;2023-06-04T14:45:00;6.00;;;3.42;;
17812;SDS011;9030;50.792;8.320;2023-06-04T14:47:26;7.40;;;3.47;;
17812;SDS011;9030;50.792;8.320;2023-06-04T14:49:53;7.65;;;4.07;;
17812;SDS011;9030;50.792;8.320;2023-06-04T14:52:21;9.90;;;3.65;;
17812;SDS011;9030;50.792;8.320;2023-06-04T14:54:48;4.97;;;2.83;;
17812;SDS011;9030;50.792;8.320;2023-06-04T14:57:15;5.70;;;3.45;;
17812;SDS011;9030;50.792;8.320;2023-06-04T14:59:43;6.63;;;3.65;;
17812;SDS011;9030;50.792;8.320;2023-06-04T15:02:10;10.48;;;3.78;;
17812;SDS011;9030;50.792;8.320;2023-06-04T15:04:37;7.30;;;3.42;;